RAAF Base Amberley
YAMB : now visible

Airfield :











YOU CAN JOIN US ON...

 
LOGIN :

Register | Disclaimer

   EN    FR    IT 

 









Legend :    VFR   Marginal VFR   IFR   Intensive IFR   Very Intensive IFR
Visi :
Ceiling :
>= 8 km
>= 3000ft
5 to 8 km
1000 to 3000 ft
1500m to 5 km
500 to 1000 ft
800 to 1500m
200 to 500 ft
< 800m
< 200 ft
Symbols :   Thunderstorms  Fog  Heavy snow  Heavy precipitations  Wind > 20 kt






- Airport Elevation : 91 ft


YAMB - RAAF Base Amberley

CURRENT METAR :
  • 110300Z AUTO 33010KT 9999 // NCD 28/12 Q1008

EXPIRED METARs :
  • 110230Z AUTO 31007KT 290V350 9999 // NCD 27/12 Q1008
  • 110200Z AUTO 29006KT 240V330 9999 // NCD 27/12 Q1009
  • 110130Z AUTO 29007KT 270V330 9999 // NCD 27/11 Q1009
  • 110100Z AUTO 34005KT 310V040 9999 // NCD 26/14 Q1010
  • 110030Z AUTO 33005KT 9999 // SCT098 SCT120 24/15 Q1010

TAF TAF YAMB
Valid from the 11 at 00:00 until the 12 at 00:00 UTC


102306Z 1100/1200 25006KT CAVOK
FM110100 24016KT CAVOK
FM110800 25006KT CAVOK
YBBB FIR / Oceania



MET'MAP, your aeronautical weather chart ! - Copyright ORBIFLY December 2007 - Disclaimer

ORBIFLY MET'MAP TEAM :

Programming & Development : Alexandra Zaïnal
Concept & original design : Baudouin d'Aumeries
Assistance for programming : Marc-Olivier Méhu
Technical & hardware support : Manuel Goepfert

Contact : metmap@orbifly.com




SOURCES & CREDITS :

   NOAA       Earth
Advisory